createdAt,value
2022-10-19T00:02:20.960Z,102185.47
2022-10-19T00:04:47.576Z,102185.47
2022-10-19T00:07:14.133Z,102189.88
2022-10-19T00:09:44.000Z,102186.47
2022-10-19T00:12:13.009Z,102191.38
2022-10-19T00:14:39.595Z,102192.06
2022-10-19T00:17:06.176Z,102185.63
2022-10-19T00:19:32.834Z,102185.13
2022-10-19T00:21:59.406Z,102190.03
2022-10-19T00:24:26.059Z,102187.47
2022-10-19T00:26:52.601Z,102191.00
2022-10-19T00:29:19.262Z,102195.75
2022-10-19T00:31:46.207Z,102196.78
2022-10-19T00:34:12.826Z,102200.34
2022-10-19T00:36:40.897Z,102200.34
2022-10-19T00:39:12.167Z,102200.66
2022-10-19T00:41:39.785Z,102202.53
2022-10-19T00:44:12.211Z,102192.38
2022-10-19T00:46:42.233Z,102198.97
2022-10-19T00:49:20.331Z,102195.59
2022-10-19T00:51:51.244Z,102196.44
2022-10-19T00:54:18.783Z,102185.75
2022-10-19T00:56:49.753Z,102186.59
2022-10-19T00:59:20.022Z,102189.16
2022-10-19T01:01:47.956Z,102193.91
2022-10-19T01:04:15.209Z,102194.75
2022-10-19T01:06:42.261Z,102192.03
2022-10-19T01:09:09.290Z,102189.50
2022-10-19T01:12:03.809Z,102193.91
2022-10-19T01:14:54.782Z,102201.84
2022-10-19T01:17:33.719Z,102188.47
2022-10-19T01:20:19.086Z,102202.19
2022-10-19T01:23:00.141Z,102191.34
2022-10-19T01:25:47.993Z,102185.06
2022-10-19T01:28:45.883Z,102181.19
2022-10-19T01:31:21.216Z,102185.38
2022-10-19T01:33:47.849Z,102178.97
2022-10-19T01:36:14.385Z,102176.25
2022-10-19T01:38:49.593Z,102171.84
2022-10-19T01:41:40.956Z,102162.03
2022-10-19T01:44:34.273Z,102173.03
2022-10-19T01:47:06.186Z,102172.84
2022-10-19T01:49:44.717Z,102171.16
2022-10-19T01:52:14.994Z,102169.47
2022-10-19T01:54:47.449Z,102174.72
2022-10-19T01:57:19.828Z,102168.28
2022-10-19T01:59:49.113Z,102170.16
2022-10-19T02:02:17.169Z,102160.50
2022-10-19T02:04:45.441Z,102161.34
2022-10-19T02:07:12.685Z,102156.94
2022-10-19T02:09:39.250Z,102156.94
2022-10-19T02:12:11.192Z,102162.19
2022-10-19T02:14:44.725Z,102164.38
2022-10-19T02:17:19.303Z,102164.06
2022-10-19T02:19:45.949Z,102167.09
2022-10-19T02:22:13.821Z,102164.91
2022-10-19T02:24:40.672Z,102160.31
2022-10-19T02:27:08.994Z,102151.19
2022-10-19T02:29:37.625Z,102150.84
2022-10-19T02:32:04.963Z,102158.13
2022-10-19T02:34:32.415Z,102150.84
2022-10-19T02:36:59.080Z,102149.16
2022-10-19T02:39:25.942Z,102148.97
2022-10-19T02:42:12.781Z,102150.53
2022-10-19T02:44:53.286Z,102134.28
2022-10-19T02:47:28.343Z,102152.41
2022-10-19T02:49:54.953Z,102148.84
2022-10-19T02:52:21.551Z,102152.22
2022-10-19T02:54:48.302Z,102155.63
2022-10-19T02:57:20.589Z,102158.50
2022-10-19T02:59:47.275Z,102150.38
2022-10-19T03:02:15.561Z,102154.59
2022-10-19T03:04:42.957Z,102149.34
2022-10-19T03:07:10.589Z,102142.75
2022-10-19T03:09:37.184Z,102146.81
2022-10-19T03:12:04.116Z,102137.66
2022-10-19T03:14:30.663Z,102153.09
2022-10-19T03:16:57.323Z,102144.78
2022-10-19T03:19:24.054Z,102159.50
2022-10-19T03:21:51.082Z,102162.22
2022-10-19T03:24:17.920Z,102155.13
2022-10-19T03:26:44.537Z,102149.84
2022-10-19T03:29:11.179Z,102151.56
2022-10-19T03:31:37.800Z,102155.97
2022-10-19T03:34:04.683Z,102157.97
2022-10-19T03:36:33.646Z,102155.41
2022-10-19T03:39:02.430Z,102159.81
2022-10-19T03:41:30.779Z,102163.53
2022-10-19T03:43:58.038Z,102164.72
2022-10-19T03:46:24.842Z,102179.97
2022-10-19T03:48:51.418Z,102173.88
2022-10-19T03:51:23.750Z,102175.56
2022-10-19T03:54:12.719Z,102184.53
2022-10-19T03:56:39.306Z,102179.28
2022-10-19T03:59:06.873Z,102174.88
2022-10-19T04:01:39.184Z,102177.44
2022-10-19T04:04:11.243Z,102178.63
2022-10-19T04:06:40.431Z,102183.88
2022-10-19T04:09:09.023Z,102188.44
2022-10-19T04:11:35.803Z,102184.03
2022-10-19T04:14:02.562Z,102188.59
2022-10-19T04:16:31.292Z,102189.44
2022-10-19T04:18:58.418Z,102187.75
2022-10-19T04:21:33.461Z,102197.75
2022-10-19T04:24:05.803Z,102193.81
2022-10-19T04:26:33.267Z,102210.06
2022-10-19T04:29:01.123Z,102206.69
2022-10-19T04:31:28.689Z,102203.63
2022-10-19T04:33:55.738Z,102207.34
2022-10-19T04:36:23.979Z,102207.34
2022-10-19T04:38:50.569Z,102211.09
2022-10-19T04:41:19.261Z,102220.91
2022-10-19T04:43:46.120Z,102219.22
2022-10-19T04:46:18.448Z,102211.09
2022-10-19T04:48:46.567Z,102212.94
2022-10-19T04:51:14.282Z,102213.09
2022-10-19T04:53:42.516Z,102211.09
2022-10-19T04:56:18.714Z,102219.88
2022-10-19T04:58:45.588Z,102210.06
2022-10-19T05:01:15.396Z,102220.75
2022-10-19T05:03:42.008Z,102218.88
2022-10-19T05:06:09.841Z,102208.41
2022-10-19T05:08:37.538Z,102210.28
2022-10-19T05:11:13.081Z,102200.63
2022-10-19T05:13:40.690Z,102204.31
2022-10-19T05:16:08.717Z,102219.59
2022-10-19T05:18:35.270Z,102212.66
2022-10-19T05:21:02.626Z,102214.72
2022-10-19T05:23:29.797Z,102214.03
2022-10-19T05:26:08.157Z,102215.75
2022-10-19T05:28:35.686Z,102216.94
2022-10-19T05:31:10.950Z,102222.69
2022-10-19T05:33:38.544Z,102214.03
2022-10-19T05:36:28.027Z,102217.09
2022-10-19T05:38:56.925Z,102228.94
2022-10-19T05:41:25.016Z,102228.94
2022-10-19T05:43:57.400Z,102228.28
2022-10-19T05:46:25.323Z,102232.84
2022-10-19T05:48:52.101Z,102224.72
2022-10-19T05:51:21.157Z,102224.72
2022-10-19T05:53:47.941Z,102225.69
2022-10-19T05:56:17.668Z,102230.13
2022-10-19T05:58:44.900Z,102228.41
2022-10-19T06:01:12.128Z,102227.56
2022-10-19T06:03:38.757Z,102224.00
2022-10-19T06:06:06.664Z,102223.16
2022-10-19T06:08:33.763Z,102228.75
2022-10-19T06:11:09.058Z,102236.88
2022-10-19T06:13:36.839Z,102236.19
2022-10-19T06:16:04.767Z,102238.91
2022-10-19T06:18:32.065Z,102245.00
2022-10-19T06:21:07.193Z,102243.97
2022-10-19T06:23:36.957Z,102250.41
2022-10-19T06:26:06.355Z,102244.81
2022-10-19T06:28:33.111Z,102249.22
2022-10-19T06:31:00.180Z,102260.91
2022-10-19T06:33:28.058Z,102264.34
2022-10-19T06:35:54.877Z,102264.34
2022-10-19T06:38:21.773Z,102267.72
2022-10-19T06:40:49.189Z,102269.44
2022-10-19T06:43:16.155Z,102271.28
2022-10-19T06:45:42.822Z,102271.97
2022-10-19T06:48:09.498Z,102272.97
2022-10-19T06:50:36.080Z,102282.66
2022-10-19T06:53:02.821Z,102277.38
2022-10-19T06:55:29.428Z,102288.22
2022-10-19T06:57:56.007Z,102295.34
2022-10-19T07:00:22.569Z,102291.94
2022-10-19T07:02:49.169Z,102302.09
2022-10-19T07:05:15.895Z,102296.84
2022-10-19T07:07:42.584Z,102304.13
2022-10-19T07:10:09.389Z,102299.00
2022-10-19T07:12:35.984Z,102313.75
2022-10-19T07:15:02.814Z,102314.44
2022-10-19T07:17:29.854Z,102316.13
2022-10-19T07:19:56.450Z,102311.72
2022-10-19T07:22:27.853Z,102317.81
2022-10-19T07:24:54.827Z,102313.41
2022-10-19T07:27:21.719Z,102315.28
2022-10-19T07:29:48.300Z,102315.09
2022-10-19T07:32:14.863Z,102313.56
2022-10-19T07:34:41.484Z,102303.47
2022-10-19T07:37:08.048Z,102309.47
2022-10-19T07:39:34.639Z,102301.88
2022-10-19T07:42:01.218Z,102302.78
2022-10-19T07:44:27.985Z,102300.53
2022-10-19T07:46:54.543Z,102301.41
2022-10-19T07:49:21.800Z,102295.28
2022-10-19T07:51:48.400Z,102297.81
2022-10-19T07:54:15.355Z,102294.28
2022-10-19T07:56:41.891Z,102291.81
2022-10-19T07:59:09.938Z,102299.31
2022-10-19T08:01:41.366Z,102304.41
2022-10-19T08:06:54.717Z,102313.22
2022-10-19T08:09:50.748Z,102309.56
2022-10-19T08:12:12.342Z,102311.91
2022-10-19T08:14:41.394Z,102311.53
2022-10-19T08:17:11.844Z,102313.06
2022-10-19T08:19:43.349Z,102316.94
2022-10-19T08:22:10.545Z,102319.44
2022-10-19T08:24:37.127Z,102315.72
2022-10-19T08:27:03.913Z,102320.63
2022-10-19T08:29:31.612Z,102321.81
2022-10-19T08:31:59.115Z,102322.00
2022-10-19T08:34:25.813Z,102324.59
2022-10-19T08:36:52.368Z,102328.66
2022-10-19T08:39:18.972Z,102327.63
2022-10-19T08:42:11.624Z,102333.47
2022-10-19T08:45:00.037Z,102327.25
2022-10-19T08:47:43.144Z,102320.47
2022-10-19T08:50:29.595Z,102332.22
2022-10-19T08:53:03.705Z,102330.16
2022-10-19T08:55:58.632Z,102335.59
2022-10-19T08:58:55.049Z,102330.84
2022-10-19T09:01:24.443Z,102328.81
2022-10-19T09:04:14.289Z,102336.88
2022-10-19T09:06:57.242Z,102339.19
2022-10-19T09:09:25.349Z,102348.84
2022-10-19T09:11:58.374Z,102339.88
2022-10-19T09:14:31.409Z,102339.53
2022-10-19T09:17:02.759Z,102342.09
2022-10-19T09:19:31.914Z,102348.38
2022-10-19T09:22:30.051Z,102350.72
2022-10-19T09:25:17.970Z,102351.63
2022-10-19T09:27:48.347Z,102356.88
2022-10-19T09:30:21.817Z,102356.88
2022-10-19T09:33:00.317Z,102357.34
2022-10-19T09:35:29.928Z,102359.19
2022-10-19T09:37:57.092Z,102365.16
2022-10-19T09:40:28.819Z,102360.91
2022-10-19T09:43:02.997Z,102364.63
2022-10-19T09:45:39.639Z,102361.22
2022-10-19T09:48:18.313Z,102372.41
2022-10-19T09:50:46.143Z,102369.84
2022-10-19T09:53:20.274Z,102364.63
2022-10-19T09:56:04.386Z,102367.50
2022-10-19T09:58:33.091Z,102370.38
2022-10-19T10:01:01.317Z,102372.06
2022-10-19T10:03:43.263Z,102371.78
2022-10-19T10:06:14.922Z,102374.31
2022-10-19T10:08:47.762Z,102372.25
2022-10-19T10:11:24.199Z,102382.28
2022-10-19T10:13:53.236Z,102383.34
2022-10-19T10:16:25.130Z,102389.78
2022-10-19T10:19:09.028Z,102383.66
2022-10-19T10:21:57.897Z,102378.06
2022-10-19T10:24:30.193Z,102368.50
2022-10-19T10:27:02.328Z,102375.31
2022-10-19T10:29:34.271Z,102375.28
2022-10-19T10:32:06.749Z,102373.81
2022-10-19T10:34:58.409Z,102379.94
2022-10-19T10:37:59.530Z,102377.91
2022-10-19T10:40:31.421Z,102377.91
2022-10-19T10:43:04.790Z,102370.56
2022-10-19T10:45:45.595Z,102372.41
2022-10-19T10:48:36.444Z,102374.56
2022-10-19T10:51:05.658Z,102365.09
2022-10-19T10:53:39.739Z,102355.41
2022-10-19T10:56:20.896Z,102363.09
2022-10-19T10:59:02.898Z,102372.94
2022-10-19T11:01:40.052Z,102366.31
2022-10-19T11:04:23.076Z,102363.19
2022-10-19T11:06:58.461Z,102377.44
2022-10-19T11:09:38.432Z,102369.47
2022-10-19T11:12:12.370Z,102356.13
2022-10-19T11:15:02.960Z,102354.31
2022-10-19T11:17:33.766Z,102367.78
2022-10-19T11:20:00.450Z,102370.16
2022-10-19T11:22:41.503Z,102370.44
2022-10-19T11:25:29.207Z,102377.03
2022-10-19T11:28:16.097Z,102370.78
2022-10-19T11:31:02.809Z,102373.94
2022-10-19T11:34:00.370Z,102378.19
2022-10-19T11:37:14.221Z,102378.72
2022-10-19T11:39:43.632Z,102367.41
2022-10-19T11:42:36.763Z,102363.91
2022-10-19T11:45:13.964Z,102356.06
2022-10-19T11:48:05.333Z,102358.81
2022-10-19T11:50:49.682Z,102355.47
2022-10-19T11:54:01.354Z,102361.69
2022-10-19T11:57:02.151Z,102350.34
2022-10-19T11:59:50.940Z,102353.72
2022-10-19T12:02:37.322Z,102351.47
2022-10-19T12:05:25.033Z,102346.81
2022-10-19T12:08:22.927Z,102350.78
2022-10-19T12:11:05.222Z,102339.13
2022-10-19T12:13:48.063Z,102349.41
2022-10-19T12:16:17.251Z,102353.16
2022-10-19T12:18:48.367Z,102352.63
2022-10-19T12:21:25.944Z,102355.91
2022-10-19T12:23:53.353Z,102354.56
2022-10-19T12:26:22.348Z,102357.34
2022-10-19T12:29:00.854Z,102358.00
2022-10-19T12:31:29.418Z,102357.44
2022-10-19T12:34:40.678Z,102357.91
2022-10-19T12:37:20.031Z,102352.56
2022-10-19T12:40:08.706Z,102341.69
2022-10-19T12:42:51.470Z,102343.00
2022-10-19T12:45:39.942Z,102332.94
2022-10-19T12:48:12.459Z,102329.44
2022-10-19T12:51:03.310Z,102337.84
2022-10-19T12:53:39.287Z,102335.56
2022-10-19T12:56:10.829Z,102333.44
2022-10-19T12:58:47.861Z,102322.56
2022-10-19T13:01:44.350Z,102327.03
2022-10-19T13:04:15.515Z,102318.59
2022-10-19T13:06:50.949Z,102339.09
2022-10-19T13:09:38.133Z,102327.38
2022-10-19T13:12:16.459Z,102325.00
2022-10-19T13:14:52.002Z,102326.41
2022-10-19T13:17:34.353Z,102329.78
2022-10-19T13:20:13.308Z,102325.03
2022-10-19T13:22:51.184Z,102325.00
2022-10-19T13:25:28.950Z,102321.94
2022-10-19T13:28:07.751Z,102314.13
2022-10-19T13:30:38.132Z,102309.19
2022-10-19T13:33:29.064Z,102313.91
2022-10-19T13:35:58.528Z,102309.44
2022-10-19T13:38:28.736Z,102306.78
2022-10-19T13:41:01.221Z,102304.47
2022-10-19T13:43:51.781Z,102312.34
2022-10-19T13:46:30.380Z,102299.53
2022-10-19T13:49:18.537Z,102303.91
2022-10-19T13:52:09.306Z,102305.69
2022-10-19T13:54:57.488Z,102306.06
2022-10-19T13:57:59.147Z,102302.19
2022-10-19T14:00:35.325Z,102295.22
2022-10-19T14:03:20.868Z,102295.78
2022-10-19T14:06:02.717Z,102294.16
2022-10-19T14:08:35.090Z,102294.84
2022-10-19T14:11:31.164Z,102302.53
2022-10-19T14:14:17.541Z,102299.56
2022-10-19T14:16:53.607Z,102305.97
2022-10-19T14:19:29.608Z,102298.25
2022-10-19T14:21:59.300Z,102303.31
2022-10-19T14:24:43.977Z,102298.81
2022-10-19T14:27:23.913Z,102290.84
2022-10-19T14:29:53.103Z,102286.88
2022-10-19T14:32:25.030Z,102283.59
2022-10-19T14:34:53.039Z,102284.06
2022-10-19T14:37:27.063Z,102288.28
2022-10-19T14:40:26.468Z,102284.63
2022-10-19T14:42:56.895Z,102276.84
2022-10-19T14:45:26.371Z,102289.09
2022-10-19T14:48:01.980Z,102270.47
2022-10-19T14:50:45.781Z,102279.22
2022-10-19T14:53:36.470Z,102277.84
2022-10-19T14:56:47.488Z,102280.16
2022-10-19T14:59:23.153Z,102269.03
2022-10-19T15:01:56.168Z,102279.13
2022-10-19T15:04:29.973Z,102274.91
2022-10-19T15:06:58.066Z,102278.38
2022-10-19T15:09:37.280Z,102272.97
2022-10-19T15:12:16.780Z,102272.31
2022-10-19T15:14:44.379Z,102275.00
2022-10-19T15:17:29.487Z,102272.78
2022-10-19T15:20:01.080Z,102270.97
2022-10-19T15:22:30.845Z,102269.47
2022-10-19T15:25:19.288Z,102271.22
2022-10-19T15:27:47.586Z,102279.19
2022-10-19T15:30:28.515Z,102278.88
2022-10-19T15:33:18.479Z,102281.59
2022-10-19T15:35:45.221Z,102279.03
2022-10-19T15:38:14.839Z,102277.16
2022-10-19T15:40:43.775Z,102282.59
2022-10-19T15:43:32.918Z,102284.63
2022-10-19T15:46:20.223Z,102279.69
2022-10-19T15:48:52.356Z,102285.78
2022-10-19T15:51:24.702Z,102287.00
2022-10-19T15:53:56.679Z,102287.81
2022-10-19T15:56:25.934Z,102288.00
2022-10-19T15:58:54.628Z,102288.50
2022-10-19T16:01:24.248Z,102291.69
2022-10-19T16:03:50.847Z,102296.25
2022-10-19T16:06:18.797Z,102288.59
2022-10-19T16:08:46.358Z,102294.81
2022-10-19T16:11:15.044Z,102297.00
2022-10-19T16:13:41.753Z,102294.13
2022-10-19T16:16:12.188Z,102291.59
2022-10-19T16:18:38.846Z,102292.09
2022-10-19T16:21:05.674Z,102295.81
2022-10-19T16:23:37.739Z,102294.94
2022-10-19T16:26:07.598Z,102299.34
2022-10-19T16:28:34.258Z,102303.56
2022-10-19T16:31:00.830Z,102298.38
2022-10-19T16:33:27.392Z,102306.31
2022-10-19T16:35:53.961Z,102312.94
2022-10-19T16:38:20.605Z,102310.41
2022-10-19T16:40:47.221Z,102311.75
2022-10-19T16:43:13.787Z,102313.63
2022-10-19T16:45:43.938Z,102316.66
2022-10-19T16:48:13.371Z,102319.03
2022-10-19T16:50:39.980Z,102315.47
2022-10-19T16:53:10.808Z,102320.22
2022-10-19T16:55:39.780Z,102319.72
2022-10-19T16:58:06.521Z,102321.06
2022-10-19T17:00:33.796Z,102329.91
2022-10-19T17:03:00.630Z,102328.34
2022-10-19T17:05:27.197Z,102333.94
2022-10-19T17:07:53.863Z,102333.66
2022-10-19T17:10:20.497Z,102329.63
2022-10-19T17:12:47.105Z,102333.47
2022-10-19T17:15:43.753Z,102332.78
2022-10-19T17:18:00.279Z,102339.38
2022-10-19T17:20:26.836Z,102346.81
2022-10-19T17:22:53.416Z,102350.72
2022-10-19T17:25:20.053Z,102345.31
2022-10-19T17:27:50.757Z,102350.88
2022-10-19T17:30:17.501Z,102350.34
2022-10-19T17:32:44.517Z,102360.66
2022-10-19T17:35:11.078Z,102350.50
2022-10-19T17:37:38.027Z,102358.63
2022-10-19T17:40:05.204Z,102362.53
2022-10-19T17:42:32.221Z,102370.66
2022-10-19T17:44:58.771Z,102360.84
2022-10-19T17:47:25.316Z,102364.72
2022-10-19T17:49:51.880Z,102362.88
2022-10-19T17:52:18.429Z,102361.84
2022-10-19T17:54:54.626Z,102355.91
2022-10-19T17:57:31.671Z,102362.03
2022-10-19T17:59:58.383Z,102364.72
2022-10-19T18:02:25.019Z,102362.19
2022-10-19T18:04:51.631Z,102365.03
2022-10-19T18:07:18.825Z,102368.06
2022-10-19T18:09:45.384Z,102365.19
2022-10-19T18:12:13.393Z,102361.63
2022-10-19T18:14:40.398Z,102361.97
2022-10-19T18:17:06.983Z,102361.81
2022-10-19T18:19:33.584Z,102369.09
2022-10-19T18:22:00.144Z,102363.66
2022-10-19T18:24:26.749Z,102359.41
2022-10-19T18:26:53.418Z,102364.69
2022-10-19T18:29:23.567Z,102356.72
2022-10-19T18:31:53.435Z,102359.25
2022-10-19T18:34:25.389Z,102353.66
2022-10-19T18:36:52.821Z,102357.06
2022-10-19T18:39:20.271Z,102355.75
2022-10-19T18:41:51.741Z,102363.03
2022-10-19T18:44:22.161Z,102361.47
2022-10-19T18:46:52.681Z,102362.19
2022-10-19T18:49:19.219Z,102367.44
2022-10-19T18:51:50.647Z,102364.03
2022-10-19T18:54:21.182Z,102371.16
2022-10-19T18:56:47.782Z,102369.47
2022-10-19T18:59:15.217Z,102365.75
2022-10-19T19:01:41.912Z,102368.63
2022-10-19T19:04:09.621Z,102379.59
2022-10-19T19:06:37.942Z,102370.78
2022-10-19T19:09:10.483Z,102367.91
2022-10-19T19:11:39.233Z,102364.19
2022-10-19T19:14:12.200Z,102362.81
2022-10-19T19:16:40.477Z,102372.47
2022-10-19T19:19:07.744Z,102366.38
2022-10-19T19:21:36.407Z,102365.34
2022-10-19T19:24:05.818Z,102368.25
2022-10-19T19:26:36.903Z,102373.97
2022-10-19T19:29:04.447Z,102366.19
2022-10-19T19:31:31.184Z,102368.91
2022-10-19T19:34:00.938Z,102365.47
2022-10-19T19:36:28.213Z,102361.91
2022-10-19T19:38:56.733Z,102364.94
2022-10-19T19:41:24.865Z,102358.53
2022-10-19T19:43:51.443Z,102365.13
2022-10-19T19:46:19.436Z,102359.88
2022-10-19T19:48:47.952Z,102359.00
2022-10-19T19:51:20.468Z,102360.03
2022-10-19T19:53:48.193Z,102356.75
2022-10-19T19:56:16.200Z,102356.94
2022-10-19T19:58:43.777Z,102353.38
2022-10-19T20:01:12.596Z,102357.09
2022-10-19T20:03:40.627Z,102356.25
2022-10-19T20:06:07.566Z,102358.28
2022-10-19T20:08:36.273Z,102357.59
2022-10-19T20:11:06.029Z,102355.03
2022-10-19T20:13:33.319Z,102368.03
2022-10-19T20:16:06.275Z,102366.00
2022-10-19T20:18:32.859Z,102362.44
2022-10-19T20:21:03.415Z,102375.16
2022-10-19T20:23:30.129Z,102378.88
2022-10-19T20:25:56.737Z,102380.56
2022-10-19T20:28:27.509Z,102377.34
2022-10-19T20:31:06.349Z,102382.91
2022-10-19T20:33:36.869Z,102389.34
2022-10-19T20:36:08.830Z,102381.06
2022-10-19T20:38:37.196Z,102382.06
2022-10-19T20:41:08.635Z,102386.63
2022-10-19T20:43:37.053Z,102391.53
2022-10-19T20:46:10.249Z,102386.78
2022-10-19T20:48:36.795Z,102389.50
2022-10-19T20:51:18.975Z,102391.38
2022-10-19T20:53:47.835Z,102387.56
2022-10-19T20:56:16.728Z,102392.38
2022-10-19T20:58:44.862Z,102387.25
2022-10-19T21:01:13.417Z,102390.13
2022-10-19T21:03:45.010Z,102392.81
2022-10-19T21:06:11.558Z,102386.41
2022-10-19T21:08:38.242Z,102390.66
2022-10-19T21:11:19.298Z,102398.94
2022-10-19T21:13:47.187Z,102399.53
2022-10-19T21:16:18.602Z,102392.09
2022-10-19T21:18:46.803Z,102392.28
2022-10-19T21:21:16.245Z,102394.97
2022-10-19T21:23:44.590Z,102391.75
2022-10-19T21:26:12.312Z,102403.25
2022-10-19T21:28:39.973Z,102401.56
2022-10-19T21:31:09.405Z,102396.44
2022-10-19T21:33:36.488Z,102391.50
2022-10-19T21:36:04.973Z,102390.00
2022-10-19T21:38:31.861Z,102394.59
2022-10-19T21:41:12.826Z,102385.59
2022-10-19T21:43:39.586Z,102388.97
2022-10-19T21:46:08.649Z,102391.03
2022-10-19T21:48:35.490Z,102393.72
2022-10-19T21:51:20.424Z,102387.47
2022-10-19T21:53:47.034Z,102381.03
2022-10-19T21:56:15.249Z,102380.19
2022-10-19T21:58:46.734Z,102380.50
2022-10-19T22:01:13.800Z,102376.09
2022-10-19T22:03:40.408Z,102372.56
2022-10-19T22:06:07.495Z,102372.06
2022-10-19T22:08:34.356Z,102366.28
2022-10-19T22:11:09.150Z,102368.66
2022-10-19T22:13:36.701Z,102365.75
2022-10-19T22:16:15.661Z,102361.09
2022-10-19T22:18:42.754Z,102351.81
2022-10-19T22:21:15.145Z,102362.09
2022-10-19T22:23:42.549Z,102355.78
2022-10-19T22:26:17.128Z,102360.09
2022-10-19T22:28:43.862Z,102353.84
2022-10-19T22:31:11.392Z,102356.16
2022-10-19T22:33:38.010Z,102345.16
2022-10-19T22:36:07.360Z,102344.31
2022-10-19T22:38:36.382Z,102346.31
2022-10-19T22:41:03.052Z,102345.16
2022-10-19T22:43:29.606Z,102340.91
2022-10-19T22:45:56.225Z,102343.78
2022-10-19T22:48:23.162Z,102343.63
2022-10-19T22:50:53.995Z,102349.19
2022-10-19T22:53:23.930Z,102351.75
2022-10-19T22:55:50.569Z,102352.59
2022-10-19T22:58:17.716Z,102348.34
2022-10-19T23:00:44.368Z,102341.56
2022-10-19T23:03:11.126Z,102346.41
2022-10-19T23:05:37.756Z,102341.47
2022-10-19T23:08:04.559Z,102336.75
2022-10-19T23:10:32.759Z,102336.13
2022-10-19T23:12:59.382Z,102333.97
2022-10-19T23:15:25.959Z,102335.25
2022-10-19T23:17:52.535Z,102325.59
2022-10-19T23:20:19.114Z,102328.47
2022-10-19T23:22:45.701Z,102325.31
2022-10-19T23:25:12.275Z,102329.81
2022-10-19T23:27:39.178Z,102321.84
2022-10-19T23:30:06.353Z,102322.53
2022-10-19T23:32:32.913Z,102321.84
2022-10-19T23:34:59.487Z,102320.88
2022-10-19T23:37:26.069Z,102329.66
2022-10-19T23:39:52.623Z,102328.78
2022-10-19T23:42:19.199Z,102324.00
2022-10-19T23:44:45.752Z,102330.09
2022-10-19T23:47:12.318Z,102338.38
2022-10-19T23:49:38.926Z,102334.38
2022-10-19T23:52:05.582Z,102339.94
2022-10-19T23:54:32.228Z,102335.06
2022-10-19T23:56:58.821Z,102329.25
2022-10-19T23:59:25.394Z,102333.03
